Time;durP1;ratioP1;P1;durP2;ratioP2;P2;SDS_P1;SDS_P2;PMS_P1;PMS_P2;Temp;Humidity;BMP_temperature;BMP_pressure;BME280_temperature;BME280_humidity;BME280_pressure;Samples;Min_cycle;Max_cycle;Signal;HPM_P1;HPM_P2
2023/12/03 00:00:35;;;;;;;12.73;11.43;;;;;;;;;;10316354;28;20247;-79
2023/12/03 00:05:38;;;;;;;12.70;11.50;;;1.40;99.90;;;;;;10323296;28;20232;-77
2023/12/03 00:10:42;;;;;;;13.43;12.13;;;1.80;99.90;;;;;;10328721;28;20261;-78
2023/12/03 00:15:45;;;;;;;13.50;12.10;;;1.80;99.90;;;;;;10329260;28;20266;-78
2023/12/03 00:20:47;;;;;;;12.67;11.40;;;1.90;99.90;;;;;;10326371;28;20231;-79
2023/12/03 00:25:49;;;;;;;13.40;12.10;;;1.90;99.90;;;;;;10328579;28;20786;-77
2023/12/03 00:30:52;;;;;;;11.53;10.40;;;1.80;99.90;;;;;;10319261;28;20246;-77
2023/12/03 00:35:54;;;;;;;12.13;10.93;;;1.80;99.90;;;;;;10326730;28;20376;-79
2023/12/03 00:40:56;;;;;;;12.83;11.53;;;1.80;99.90;;;;;;10291596;28;20203;-78
2023/12/03 00:46:00;;;;;;;13.53;12.27;;;1.80;99.90;;;;;;10324100;28;20613;-76
2023/12/03 00:51:03;;;;;;;12.10;11.00;;;1.80;99.90;;;;;;10288477;28;20230;-76
2023/12/03 00:56:05;;;;;;;12.57;11.20;;;1.80;99.90;;;;;;10316389;28;20310;-77
2023/12/03 01:01:08;;;;;;;11.83;10.63;;;1.80;99.90;;;;;;10309422;28;20207;-76
2023/12/03 01:06:11;;;;;;;11.70;10.50;;;1.80;99.90;;;;;;10286908;28;20232;-76
2023/12/03 01:11:13;;;;;;;12.40;11.30;;;1.80;99.90;;;;;;10288176;28;20219;-77
2023/12/03 01:16:17;;;;;;;12.20;10.67;;;1.70;99.90;;;;;;10295722;28;20278;-77
2023/12/03 01:21:19;;;;;;;12.27;11.07;;;1.70;99.90;;;;;;10289978;28;20295;-76
2023/12/03 01:26:21;;;;;;;12.67;11.47;;;1.70;99.90;;;;;;10289871;28;20251;-78
2023/12/03 01:31:24;;;;;;;11.37;10.17;;;1.70;99.90;;;;;;10291904;28;20309;-75
2023/12/03 01:36:26;;;;;;;11.83;10.50;;;1.70;99.90;;;;;;10289680;28;20239;-77
2023/12/03 01:41:28;;;;;;;13.70;12.30;;;1.70;99.90;;;;;;10288229;28;20204;-76
2023/12/03 01:46:31;;;;;;;12.60;11.33;;;1.80;99.90;;;;;;10311012;28;20231;-75
2023/12/03 01:51:34;;;;;;;12.73;11.43;;;1.80;99.90;;;;;;10284477;28;20231;-76
2023/12/03 01:56:37;;;;;;;11.83;10.70;;;1.80;99.90;;;;;;10282346;28;20223;-75
2023/12/03 02:01:40;;;;;;;12.20;11.00;;;1.80;99.90;;;;;;10282000;28;20207;-75
2023/12/03 02:06:42;;;;;;;11.43;10.30;;;1.80;99.90;;;;;;10302500;28;20223;-76
2023/12/03 02:11:44;;;;;;;12.27;11.07;;;1.80;99.90;;;;;;10285922;28;20709;-76
2023/12/03 02:16:48;;;;;;;12.20;11.07;;;1.70;99.90;;;;;;10304768;28;20792;-76
2023/12/03 02:21:49;;;;;;;11.93;10.73;;;1.60;99.90;;;;;;10287736;28;20725;-77
2023/12/03 02:26:53;;;;;;;11.70;10.50;;;1.60;99.90;;;;;;10307052;28;20275;-77
2023/12/03 02:31:54;;;;;;;12.53;11.33;;;1.00;99.90;;;;;;10289323;28;20274;-77
2023/12/03 02:36:57;;;;;;;11.60;10.50;;;;;;;;;;10309126;28;20236;-77
2023/12/03 02:42:00;;;;;;;11.83;10.33;;;1.40;99.90;;;;;;10291031;28;20278;-77
2023/12/03 02:47:01;;;;;;;12.23;11.03;;;1.50;99.90;;;;;;10315739;28;20733;-77
2023/12/03 02:52:04;;;;;;;11.73;10.50;;;1.40;99.90;;;;;;10297869;28;20239;-77
2023/12/03 02:57:07;;;;;;;12.27;11.17;;;1.30;99.90;;;;;;10293029;28;20215;-76
2023/12/03 03:02:09;;;;;;;13.90;11.83;;;1.30;99.90;;;;;;10281953;28;20195;-77
2023/12/03 03:07:11;;;;;;;12.20;11.10;;;1.20;99.90;;;;;;10282225;28;20231;-77
2023/12/03 03:12:14;;;;;;;12.13;10.73;;;1.20;99.90;;;;;;10273976;28;20263;-77
2023/12/03 03:17:16;;;;;;;11.77;10.60;;;1.20;99.90;;;;;;10295743;28;20591;-77
2023/12/03 03:22:18;;;;;;;12.00;10.73;;;1.10;99.90;;;;;;10292831;28;20196;-77
2023/12/03 03:27:21;;;;;;;11.40;10.23;;;1.10;99.90;;;;;;10302245;28;20606;-77
2023/12/03 03:32:23;;;;;;;12.27;11.07;;;1.10;99.90;;;;;;10302102;28;20204;-76
2023/12/03 03:37:25;;;;;;;11.50;10.40;;;1.10;99.90;;;;;;10283609;28;20654;-77
2023/12/03 03:42:28;;;;;;;11.63;10.53;;;1.10;99.90;;;;;;10301572;28;20204;-77
2023/12/03 03:47:31;;;;;;;11.90;10.70;;;1.00;99.90;;;;;;10302371;28;20679;-76
2023/12/03 03:52:32;;;;;;;11.20;10.10;;;1.00;99.90;;;;;;10286767;28;20665;-76
2023/12/03 03:57:36;;;;;;;11.47;10.30;;;0.90;99.90;;;;;;10298155;28;20257;-77
2023/12/03 04:02:38;;;;;;;11.30;10.20;;;0.90;99.90;;;;;;10305283;28;20477;-76
2023/12/03 04:07:39;;;;;;;12.40;11.20;;;0.90;99.90;;;;;;10304204;28;20215;-77
2023/12/03 04:12:43;;;;;;;10.97;9.90;;;0.90;99.90;;;;;;10300935;28;20724;-77
2023/12/03 04:17:45;;;;;;;12.20;11.00;;;0.80;99.90;;;;;;10297709;28;20192;-76
2023/12/03 04:22:47;;;;;;;11.67;10.50;;;0.70;99.90;;;;;;10298194;28;20282;-76
2023/12/03 04:27:50;;;;;;;11.00;9.90;;;0.60;99.90;;;;;;10298897;28;20215;-76
2023/12/03 04:32:52;;;;;;;12.17;11.07;;;0.60;99.90;;;;;;10297520;28;20270;-76
2023/12/03 04:37:54;;;;;;;15.97;11.63;;;0.50;99.90;;;;;;10295607;28;20204;-75
2023/12/03 04:42:57;;;;;;;13.27;11.87;;;0.60;99.90;;;;;;10300366;28;20286;-76
2023/12/03 04:47:59;;;;;;;11.70;10.60;;;0.40;98.30;;;;;;10286238;28;20325;-76
2023/12/03 04:53:01;;;;;;;12.17;11.07;;;0.40;97.90;;;;;;10301052;28;20274;-76
2023/12/03 04:58:04;;;;;;;12.03;10.83;;;0.30;98.00;;;;;;10303839;28;20191;-76
2023/12/03 05:03:06;;;;;;;14.17;12.80;;;0.20;98.00;;;;;;10286138;28;20283;-77
2023/12/03 05:08:07;;;;;;;13.67;12.23;;;0.10;97.90;;;;;;10267747;28;20227;-76
2023/12/03 05:13:11;;;;;;;12.83;11.50;;;-0.10;98.50;;;;;;10263428;28;20271;-77
2023/12/03 05:18:12;;;;;;;13.27;11.77;;;-0.30;99.10;;;;;;10268206;28;20188;-76
2023/12/03 05:23:14;;;;;;;12.97;11.67;;;-0.40;99.50;;;;;;10285438;28;20220;-76
2023/12/03 05:28:17;;;;;;;13.87;12.47;;;-0.40;99.40;;;;;;10286814;28;20215;-79
2023/12/03 05:33:19;;;;;;;12.63;11.33;;;-0.40;99.70;;;;;;10266137;28;20224;-76
2023/12/03 05:38:21;;;;;;;13.23;11.50;;;-0.50;99.90;;;;;;10265675;28;20657;-77
2023/12/03 05:43:24;;;;;;;13.10;11.80;;;-0.60;99.80;;;;;;10264361;28;20220;-77
2023/12/03 05:48:26;;;;;;;14.60;13.10;;;-0.70;99.90;;;;;;10264817;28;20294;-76
2023/12/03 05:53:28;;;;;;;13.70;12.23;;;-0.70;97.30;;;;;;10284085;28;20227;-77
2023/12/03 05:58:31;;;;;;;13.80;12.40;;;-0.90;97.80;;;;;;10286273;28;20195;-76
2023/12/03 06:03:33;;;;;;;13.17;11.87;;;-1.00;97.90;;;;;;10265887;28;20307;-76
2023/12/03 06:08:35;;;;;;;13.83;12.27;;;-1.00;98.20;;;;;;10262436;28;20307;-76
2023/12/03 06:13:38;;;;;;;14.87;13.33;;;-1.00;97.80;;;;;;10266348;28;20236;-77
2023/12/03 06:18:40;;;;;;;13.80;12.40;;;-1.10;97.70;;;;;;10262346;28;20250;-76
2023/12/03 06:23:41;;;;;;;14.83;13.33;;;-1.10;97.90;;;;;;10292071;28;20709;-76
2023/12/03 06:28:45;;;;;;;16.20;14.30;;;-1.10;98.00;;;;;;10292177;28;20282;-76
2023/12/03 06:33:47;;;;;;;14.60;13.10;;;-1.20;97.90;;;;;;10274750;28;20216;-77
2023/12/03 06:38:49;;;;;;;15.47;13.87;;;-1.20;98.10;;;;;;10268181;28;20210;-76
2023/12/03 06:43:52;;;;;;;16.13;14.47;;;-1.30;98.20;;;;;;10274295;28;20272;-77
2023/12/03 06:48:54;;;;;;;18.70;15.43;;;-1.20;97.80;;;;;;10267528;28;20216;-77
2023/12/03 06:53:56;;;;;;;14.70;13.20;;;-1.30;98.20;;;;;;10273501;28;20236;-75
2023/12/03 06:59:00;;;;;;;16.37;14.57;;;-1.20;98.50;;;;;;10292524;28;20192;-76
2023/12/03 07:04:01;;;;;;;18.10;14.60;;;-1.20;98.30;;;;;;10276639;28;20268;-77
2023/12/03 07:09:03;;;;;;;19.63;15.03;;;-1.10;98.60;;;;;;10265565;28;20220;-77
2023/12/03 07:14:07;;;;;;;17.87;14.70;;;-1.10;98.30;;;;;;10275330;28;20220;-76
2023/12/03 07:19:09;;;;;;;15.60;13.60;;;-1.10;98.10;;;;;;10264156;28;20703;-76
2023/12/03 07:24:11;;;;;;;17.47;14.80;;;-1.10;97.90;;;;;;10289411;28;20728;-77
2023/12/03 07:29:14;;;;;;;16.20;14.50;;;-1.10;98.20;;;;;;10289549;28;20227;-77
2023/12/03 07:34:16;;;;;;;15.20;13.17;;;-1.10;97.90;;;;;;10288885;28;20278;-76
2023/12/03 07:39:18;;;;;;;15.23;13.63;;;-1.10;98.20;;;;;;10287291;28;20740;-76
2023/12/03 07:44:21;;;;;;;15.90;14.20;;;-1.10;98.70;;;;;;10277103;28;20224;-76
2023/12/03 07:49:23;;;;;;;20.00;16.97;;;-1.00;98.50;;;;;;10261206;28;20223;-77
2023/12/03 07:54:25;;;;;;;18.97;16.97;;;-0.90;98.90;;;;;;10288668;28;20219;-76
2023/12/03 07:59:29;;;;;;;19.83;17.57;;;-0.90;98.80;;;;;;10289949;28;20191;-78
2023/12/03 08:04:31;;;;;;;13.97;11.90;;;-0.80;98.70;;;;;;10278333;28;20212;-77
2023/12/03 08:09:33;;;;;;;18.53;16.53;;;-0.70;98.70;;;;;;10258681;28;20247;-76
2023/12/03 08:14:36;;;;;;;17.90;15.67;;;-0.70;98.80;;;;;;10263773;28;20221;-78
2023/12/03 08:19:38;;;;;;;17.23;14.77;;;-0.60;98.50;;;;;;10262089;28;20680;-78
2023/12/03 08:24:39;;;;;;;18.30;16.50;;;-0.60;98.70;;;;;;10292282;28;20268;-78
2023/12/03 08:29:43;;;;;;;18.00;16.10;;;-0.60;98.60;;;;;;10290182;28;20212;-76
2023/12/03 08:34:44;;;;;;;16.67;14.97;;;-0.50;99.00;;;;;;10292400;28;20232;-78
2023/12/03 08:39:46;;;;;;;20.87;16.77;;;-0.40;98.60;;;;;;10298762;28;20200;-78
2023/12/03 08:44:49;;;;;;;18.90;15.90;;;-0.30;98.60;;;;;;10282096;28;20213;-76
2023/12/03 08:49:52;;;;;;;16.60;14.80;;;-0.20;98.40;;;;;;10254754;28;20208;-77
2023/12/03 08:54:54;;;;;;;17.70;15.80;;;-0.20;98.40;;;;;;10287216;28;20719;-77
2023/12/03 08:59:57;;;;;;;22.63;20.10;;;-0.20;98.70;;;;;;10271627;28;20195;-77
2023/12/03 09:04:59;;;;;;;16.83;15.10;;;-0.10;99.00;;;;;;10288075;28;20278;-78
2023/12/03 09:10:01;;;;;;;17.80;15.97;;;0.00;99.30;;;;;;10279883;28;20263;-81
2023/12/03 09:15:05;;;;;;;17.63;15.70;;;0.20;99.90;;;;;;10297362;28;20235;-80
2023/12/03 09:20:08;;;;;;;19.60;16.17;;;0.30;99.40;;;;;;10299236;28;20200;-78
2023/12/03 09:25:10;;;;;;;16.67;14.57;;;0.40;99.00;;;;;;10296638;28;20286;-78
2023/12/03 09:30:13;;;;;;;17.90;15.47;;;0.50;99.50;;;;;;10295367;28;20597;-77
2023/12/03 09:35:16;;;;;;;16.30;14.50;;;0.50;99.60;;;;;;10294703;28;20708;-77
2023/12/03 09:40:17;;;;;;;15.77;14.00;;;0.60;99.90;;;;;;10289251;28;20193;-78
2023/12/03 09:45:26;;;;;;;17.93;14.80;;;0.70;99.40;;;;;;10283420;28;20285;-78
2023/12/03 09:50:29;;;;;;;17.10;14.30;;;0.80;98.60;;;;;;10297396;28;20577;-79
2023/12/03 09:55:33;;;;;;;17.80;15.20;;;0.80;99.00;;;;;;10277165;28;20223;-81
2023/12/03 10:00:38;;;;;;;17.40;15.30;;;0.80;99.90;;;;;;10296781;28;20231;-79
2023/12/03 10:05:40;;;;;;;16.20;14.50;;;0.90;99.90;;;;;;10294992;28;20628;-79
2023/12/03 10:10:47;;;;;;;16.53;14.80;;;0.80;99.20;;;;;;10294624;28;20251;-79
2023/12/03 10:15:50;;;;;;;17.40;15.60;;;0.80;99.70;;;;;;10293712;28;20219;-79
2023/12/03 10:21:06;;;;;;;15.87;14.23;;;0.90;99.90;;;;;;10286015;28;20207;-78
2023/12/03 10:26:12;;;;;;;19.30;15.53;;;0.90;99.90;;;;;;10283267;28;20227;-77
2023/12/03 10:31:16;;;;;;;16.50;14.70;;;1.00;99.80;;;;;;10284396;28;20220;-78
2023/12/03 10:36:18;;;;;;;18.83;15.97;;;1.00;99.90;;;;;;10280045;28;20828;-78
2023/12/03 10:41:20;;;;;;;17.23;15.43;;;1.10;99.90;;;;;;10273263;28;20219;-78
2023/12/03 10:46:24;;;;;;;17.80;15.73;;;1.10;99.90;;;;;;10286505;28;20268;-77
2023/12/03 10:51:28;;;;;;;15.33;13.70;;;1.20;99.90;;;;;;10284319;28;20220;-76
2023/12/03 10:56:30;;;;;;;15.70;14.10;;;1.20;99.90;;;;;;10287249;28;20224;-76
2023/12/03 11:01:37;;;;;;;15.83;14.10;;;1.20;99.90;;;;;;10269476;28;20197;-77
2023/12/03 11:06:40;;;;;;;16.60;13.33;;;1.30;99.90;;;;;;10285401;28;20227;-77
2023/12/03 11:11:42;;;;;;;15.07;13.47;;;1.30;99.70;;;;;;10259397;28;20686;-77
2023/12/03 11:16:57;;;;;;;18.33;15.30;;;1.30;99.90;;;;;;10290448;28;20634;-78
2023/12/03 11:22:11;;;;;;;16.43;13.70;;;1.40;99.90;;;;;;10266343;28;20208;-77
2023/12/03 11:27:13;;;;;;;15.83;13.80;;;1.40;99.80;;;;;;10293682;28;20248;-77
2023/12/03 11:32:17;;;;;;;16.50;13.97;;;1.40;99.70;;;;;;10286498;28;20697;-78
2023/12/03 11:37:21;;;;;;;15.13;13.53;;;1.50;99.20;;;;;;10290806;28;20224;-77
2023/12/03 11:42:27;;;;;;;16.23;13.47;;;1.50;98.80;;;;;;10276200;28;20203;-77
2023/12/03 11:47:30;;;;;;;13.33;11.93;;;1.70;98.60;;;;;;10286628;28;20243;-77
2023/12/03 11:52:32;;;;;;;14.97;13.43;;;1.60;98.80;;;;;;10288620;28;20628;-77
2023/12/03 11:57:35;;;;;;;14.43;12.93;;;1.60;99.00;;;;;;10289536;28;20200;-77
2023/12/03 12:02:38;;;;;;;16.43;14.10;;;1.70;99.70;;;;;;10268524;28;20192;-78
2023/12/03 12:07:40;;;;;;;15.90;13.57;;;1.70;99.40;;;;;;10290890;28;20231;-77
2023/12/03 12:12:42;;;;;;;13.33;11.93;;;1.80;99.20;;;;;;10290750;28;20270;-77
2023/12/03 12:17:45;;;;;;;14.33;12.83;;;1.90;98.50;;;;;;10289206;28;20196;-77
2023/12/03 12:22:47;;;;;;;14.03;12.50;;;1.90;98.20;;;;;;10287878;28;20226;-77
2023/12/03 12:27:50;;;;;;;14.87;12.90;;;2.00;98.30;;;;;;10286940;28;20320;-78
2023/12/03 12:32:54;;;;;;;15.80;13.73;;;2.00;99.00;;;;;;10288464;28;20228;-78
2023/12/03 12:38:00;;;;;;;15.17;13.50;;;2.00;99.10;;;;;;10256741;28;20299;-77
2023/12/03 12:43:06;;;;;;;16.37;14.20;;;2.00;99.40;;;;;;10292808;28;20212;-78
2023/12/03 12:48:25;;;;;;;13.27;11.97;;;2.00;99.60;;;;;;10290622;28;20259;-77
2023/12/03 12:53:47;;;;;;;14.67;12.93;;;2.10;99.50;;;;;;10273921;28;20282;-77
2023/12/03 12:58:51;;;;;;;15.73;12.70;;;2.10;99.10;;;;;;10294277;28;20203;-77
2023/12/03 13:03:53;;;;;;;14.57;12.97;;;2.10;99.30;;;;;;10271813;28;20223;-75
2023/12/03 13:08:54;;;;;;;13.67;12.20;;;2.10;99.20;;;;;;10272256;28;20204;-78
2023/12/03 13:13:58;;;;;;;12.53;11.33;;;2.10;98.70;;;;;;10289329;28;20220;-78
2023/12/03 13:19:00;;;;;;;12.30;11.00;;;2.00;99.50;;;;;;10288791;28;20290;-78
2023/12/03 13:24:02;;;;;;;13.20;11.90;;;2.10;99.20;;;;;;10304410;28;20298;-78
2023/12/03 13:29:05;;;;;;;11.37;10.20;;;2.10;99.10;;;;;;10307360;28;20339;-78
2023/12/03 13:34:09;;;;;;;11.57;10.37;;;2.10;99.40;;;;;;10307008;28;20608;-77
2023/12/03 13:39:11;;;;;;;13.80;11.77;;;2.10;99.50;;;;;;10275768;28;20295;-76
2023/12/03 13:44:14;;;;;;;13.57;12.17;;;2.10;99.30;;;;;;10282883;28;20726;-78
2023/12/03 13:49:16;;;;;;;15.10;11.80;;;2.10;99.00;;;;;;10269342;28;20203;-77
2023/12/03 13:54:18;;;;;;;14.23;12.27;;;2.10;98.70;;;;;;10282133;28;20227;-77
2023/12/03 13:59:21;;;;;;;18.90;15.07;;;2.10;99.00;;;;;;10300485;28;20215;-78
2023/12/03 14:04:23;;;;;;;14.27;12.57;;;2.00;99.60;;;;;;10291486;28;20330;-78
2023/12/03 14:09:25;;;;;;;14.15;12.60;;;2.00;99.40;;;;;;10286281;28;20204;-77
2023/12/03 14:14:28;;;;;;;14.87;12.70;;;1.90;99.80;;;;;;10280842;28;20228;-77
2023/12/03 14:19:30;;;;;;;14.17;12.60;;;1.90;99.90;;;;;;10294778;28;20212;-77
2023/12/03 14:24:32;;;;;;;19.53;17.43;;;1.70;99.90;;;;;;10283159;28;20215;-76
2023/12/03 14:29:35;;;;;;;21.57;18.40;;;1.60;99.90;;;;;;10307908;28;20210;-77
2023/12/03 14:34:37;;;;;;;17.90;16.00;;;1.60;99.90;;;;;;10292760;28;20298;-78
2023/12/03 14:39:39;;;;;;;19.90;17.47;;;1.50;99.90;;;;;;10286808;28;20670;-77
2023/12/03 14:44:42;;;;;;;21.70;18.60;;;1.50;99.90;;;;;;10292496;28;20228;-77
2023/12/03 14:49:44;;;;;;;18.80;16.80;;;1.40;99.90;;;;;;10303658;28;20577;-76
2023/12/03 14:54:46;;;;;;;18.10;16.20;;;1.40;99.90;;;;;;10290845;28;20219;-79
2023/12/03 14:59:49;;;;;;;18.80;16.80;;;1.40;99.90;;;;;;10300876;28;20219;-78
2023/12/03 15:04:52;;;;;;;17.93;15.80;;;1.40;99.90;;;;;;10333687;28;20223;-79
2023/12/03 15:09:55;;;;;;;19.27;17.07;;;1.30;99.90;;;;;;10314202;28;20262;-76
2023/12/03 15:14:59;;;;;;;18.43;16.53;;;1.30;99.90;;;;;;10314294;28;20751;-79
2023/12/03 15:20:01;;;;;;;20.77;18.60;;;1.20;99.90;;;;;;10326061;28;20192;-79
2023/12/03 15:25:03;;;;;;;19.47;17.30;;;1.10;99.90;;;;;;10326000;28;20227;-79
2023/12/03 15:30:09;;;;;;;25.47;20.40;;;1.10;99.90;;;;;;10319802;28;20216;-79
2023/12/03 15:35:11;;;;;;;22.47;19.23;;;1.00;99.90;;;;;;10300005;28;20239;-79
2023/12/03 15:40:13;;;;;;;20.97;18.70;;;1.00;99.90;;;;;;10317626;28;20199;-78
2023/12/03 15:45:16;;;;;;;19.63;16.87;;;1.00;99.90;;;;;;10338143;28;21020;-79
2023/12/03 15:50:19;;;;;;;20.70;17.53;;;1.00;99.90;;;;;;10321827;28;20219;-76
2023/12/03 15:55:21;;;;;;;22.80;18.60;;;1.00;99.90;;;;;;10301629;28;20286;-76
2023/12/03 16:00:24;;;;;;;25.00;19.90;;;0.90;99.90;;;;;;10320832;28;20211;-77
2023/12/03 16:05:26;;;;;;;22.33;19.87;;;0.90;99.90;;;;;;10308703;28;20287;-76
2023/12/03 16:10:28;;;;;;;21.60;19.13;;;1.00;99.90;;;;;;10283234;28;20282;-77
2023/12/03 16:15:31;;;;;;;20.90;18.70;;;1.00;99.90;;;;;;10286446;28;20698;-75
2023/12/03 16:20:34;;;;;;;23.03;19.93;;;1.00;99.90;;;;;;10289648;28;20184;-76
2023/12/03 16:25:36;;;;;;;25.23;22.27;;;1.10;99.90;;;;;;10278420;28;20214;-76
2023/12/03 16:30:39;;;;;;;23.50;19.97;;;1.10;99.90;;;;;;10268925;28;20212;-76
2023/12/03 16:35:41;;;;;;;23.70;19.77;;;1.10;99.90;;;;;;10290797;28;20230;-76
2023/12/03 16:40:43;;;;;;;22.67;20.20;;;1.00;99.90;;;;;;10300545;28;20569;-77
2023/12/03 16:45:46;;;;;;;23.80;21.30;;;1.00;99.90;;;;;;10285135;28;20279;-77
2023/12/03 16:50:48;;;;;;;24.03;21.40;;;0.90;99.80;;;;;;10294098;28;20314;-77
2023/12/03 16:55:52;;;;;;;28.30;22.90;;;0.80;99.50;;;;;;10302184;28;20985;-78
2023/12/03 17:00:55;;;;;;;46.67;37.67;;;0.60;99.20;;;;;;10297615;28;20207;-78
2023/12/03 17:05:57;;;;;;;25.63;22.20;;;0.50;99.20;;;;;;10307191;28;20216;-78
2023/12/03 17:10:59;;;;;;;25.73;22.27;;;0.40;99.40;;;;;;10290478;28;20315;-78
2023/12/03 17:16:03;;;;;;;24.27;21.23;;;0.30;99.40;;;;;;10275358;28;20231;-76
2023/12/03 17:21:05;;;;;;;26.97;22.00;;;0.20;99.40;;;;;;10273595;28;20211;-77
2023/12/03 17:26:07;;;;;;;24.60;21.60;;;0.10;99.40;;;;;;10301310;28;20701;-78
2023/12/03 17:31:11;;;;;;;39.23;28.70;;;0.10;99.50;;;;;;10281716;28;20749;-76
2023/12/03 17:36:13;;;;;;;43.23;32.37;;;0.00;99.80;;;;;;10273620;28;20236;-76
2023/12/03 17:41:15;;;;;;;40.33;28.80;;;0.00;99.50;;;;;;10279420;28;20207;-76
2023/12/03 17:46:19;;;;;;;49.70;34.97;;;-0.10;99.60;;;;;;10282368;28;20278;-76
2023/12/03 17:51:25;;;;;;;40.07;31.67;;;-0.10;99.70;;;;;;10286858;28;20231;-75
2023/12/03 17:56:27;;;;;;;30.50;25.70;;;-0.10;99.70;;;;;;10295460;28;20231;-75
2023/12/03 18:01:30;;;;;;;28.23;22.17;;;-0.10;99.80;;;;;;10280535;28;20207;-75
2023/12/03 18:06:32;;;;;;;25.97;22.03;;;-0.10;99.80;;;;;;10284698;28;20259;-77
2023/12/03 18:11:34;;;;;;;27.93;24.20;;;-0.10;99.40;;;;;;10277326;28;20692;-78
2023/12/03 18:16:37;;;;;;;26.97;22.90;;;-0.10;99.40;;;;;;10280091;28;20286;-75
2023/12/03 18:21:39;;;;;;;26.00;20.73;;;-0.20;99.40;;;;;;10286142;28;20200;-74
2023/12/03 18:26:41;;;;;;;24.23;21.63;;;-0.20;99.50;;;;;;10285556;28;20322;-75
2023/12/03 18:31:45;;;;;;;36.40;27.73;;;-0.20;99.70;;;;;;10286203;28;20243;-75
2023/12/03 18:36:48;;;;;;;29.10;25.20;;;-0.20;99.70;;;;;;10273429;28;20258;-76
2023/12/03 18:41:50;;;;;;;38.70;29.30;;;-0.20;99.70;;;;;;10285937;28;20196;-74
2023/12/03 18:46:54;;;;;;;32.10;24.90;;;-0.30;99.80;;;;;;10285690;28;20230;-74
2023/12/03 18:51:56;;;;;;;36.57;29.83;;;-0.30;99.90;;;;;;10284069;28;20227;-74
2023/12/03 18:56:58;;;;;;;32.97;27.00;;;-0.30;99.60;;;;;;10275987;28;20228;-76
2023/12/03 19:02:02;;;;;;;30.00;24.33;;;-0.20;99.90;;;;;;10277499;28;20210;-77
2023/12/03 19:07:04;;;;;;;24.13;21.13;;;-0.20;99.90;;;;;;10262363;28;20612;-76
2023/12/03 19:12:06;;;;;;;28.57;24.67;;;-0.20;99.80;;;;;;10272570;28;20231;-78
2023/12/03 19:17:10;;;;;;;27.10;23.60;;;-0.20;99.50;;;;;;10285528;28;20732;-77
2023/12/03 19:22:12;;;;;;;27.33;23.40;;;-0.20;99.50;;;;;;10274292;28;20262;-77
2023/12/03 19:27:14;;;;;;;28.33;23.87;;;-0.20;99.30;;;;;;10266299;28;20220;-77
2023/12/03 19:32:17;;;;;;;33.60;25.70;;;-0.30;99.20;;;;;;10280792;28;20231;-77
2023/12/03 19:37:19;;;;;;;61.70;43.50;;;-0.30;99.20;;;;;;10281117;28;20268;-78
2023/12/03 19:42:21;;;;;;;28.30;25.30;;;-0.30;99.30;;;;;;10274014;28;20669;-77
2023/12/03 19:47:25;;;;;;;32.70;24.87;;;-0.40;99.60;;;;;;10281300;28;20228;-77
2023/12/03 19:52:27;;;;;;;29.10;26.00;;;-0.40;99.20;;;;;;10283582;28;20219;-77
2023/12/03 19:57:29;;;;;;;28.87;23.27;;;-0.40;99.10;;;;;;10269953;28;20544;-77
2023/12/03 20:02:32;;;;;;;24.93;22.33;;;-0.40;99.30;;;;;;10281159;28;20204;-78
2023/12/03 20:07:34;;;;;;;27.83;23.17;;;-0.40;99.70;;;;;;10270866;28;20226;-77
2023/12/03 20:12:36;;;;;;;28.67;24.60;;;-0.30;99.70;;;;;;10282980;28;20255;-76
2023/12/03 20:17:39;;;;;;;27.80;23.50;;;-0.30;99.60;;;;;;10282383;28;20988;-76
2023/12/03 20:22:43;;;;;;;25.13;21.70;;;-0.30;99.40;;;;;;10281051;28;20258;-77
2023/12/03 20:27:45;;;;;;;26.20;21.93;;;-0.30;99.70;;;;;;10283136;28;20299;-76
2023/12/03 20:32:50;;;;;;;22.67;18.57;;;-0.30;99.90;;;;;;10283352;28;20228;-77
2023/12/03 20:37:52;;;;;;;45.53;27.10;;;-0.20;99.90;;;;;;10280057;28;20207;-77
2023/12/03 20:42:55;;;;;;;24.73;21.10;;;-0.10;99.80;;;;;;10280274;28;20970;-77
2023/12/03 20:47:58;;;;;;;24.50;21.30;;;-0.10;99.30;;;;;;10273466;28;20204;-76
2023/12/03 20:53:00;;;;;;;27.27;21.97;;;-0.10;99.40;;;;;;10282263;28;20232;-75
2023/12/03 20:58:02;;;;;;;25.73;20.80;;;-0.10;99.50;;;;;;10280908;28;20223;-75
2023/12/03 21:03:05;;;;;;;28.40;21.83;;;-0.10;99.70;;;;;;10274662;28;20216;-76
2023/12/03 21:08:07;;;;;;;23.27;19.60;;;-0.20;99.40;;;;;;10294980;28;20207;-74
2023/12/03 21:13:09;;;;;;;24.37;20.47;;;-0.20;99.40;;;;;;10270405;28;20230;-75
2023/12/03 21:18:14;;;;;;;23.63;20.33;;;-0.20;99.30;;;;;;10284653;28;20218;-76
2023/12/03 21:23:15;;;;;;;25.60;21.57;;;-0.20;99.30;;;;;;10284785;28;20304;-75
2023/12/03 21:28:21;;;;;;;36.80;27.23;;;-0.30;98.90;;;;;;10284407;28;20740;-75
2023/12/03 21:33:24;;;;;;;31.60;24.93;;;-0.30;98.90;;;;;;10278799;28;20235;-73
2023/12/03 21:38:26;;;;;;;33.13;25.37;;;-0.30;98.70;;;;;;10278851;28;20231;-76
2023/12/03 21:43:28;;;;;;;25.87;21.20;;;-0.40;98.80;;;;;;10279079;28;20223;-76
2023/12/03 21:48:32;;;;;;;23.93;20.53;;;-0.40;98.70;;;;;;10284311;28;20212;-77
2023/12/03 21:53:34;;;;;;;22.70;19.00;;;-0.40;98.80;;;;;;10246471;28;20224;-76
2023/12/03 21:58:36;;;;;;;23.83;18.43;;;-0.50;98.60;;;;;;10277042;28;20204;-76
2023/12/03 22:03:39;;;;;;;27.17;21.00;;;-0.50;98.70;;;;;;10283767;28;20211;-75
2023/12/03 22:08:41;;;;;;;23.10;19.27;;;-0.50;98.50;;;;;;10277812;28;20246;-75
2023/12/03 22:13:43;;;;;;;21.50;18.57;;;-0.50;98.30;;;;;;10278602;28;20227;-73
2023/12/03 22:18:46;;;;;;;22.00;19.00;;;-0.60;97.90;;;;;;10283256;28;20266;-75
2023/12/03 22:23:48;;;;;;;21.33;18.20;;;-0.60;98.20;;;;;;10281567;28;20705;-78
2023/12/03 22:28:50;;;;;;;23.67;18.93;;;-0.70;98.10;;;;;;10282785;28;20279;-76
2023/12/03 22:33:54;;;;;;;22.80;18.97;;;-0.80;98.00;;;;;;10282818;28;20335;-74
2023/12/03 22:38:57;;;;;;;21.50;18.50;;;-0.90;98.20;;;;;;10281824;28;20225;-77
2023/12/03 22:43:59;;;;;;;21.50;18.17;;;-0.90;98.20;;;;;;10283106;28;20226;-77
2023/12/03 22:49:02;;;;;;;23.00;19.90;;;-0.90;97.80;;;;;;10283867;28;20203;-74
2023/12/03 22:54:04;;;;;;;21.20;18.67;;;-1.00;97.80;;;;;;10281948;28;20274;-75
2023/12/03 22:59:06;;;;;;;19.60;17.50;;;-1.00;98.00;;;;;;10265210;28;20266;-75
2023/12/03 23:04:10;;;;;;;21.90;18.90;;;-0.90;97.90;;;;;;10287091;28;20223;-75
2023/12/03 23:09:13;;;;;;;21.13;18.40;;;-1.00;98.40;;;;;;10285592;28;20684;-73
2023/12/03 23:14:14;;;;;;;19.77;17.43;;;-0.90;98.10;;;;;;10287654;28;20723;-76
2023/12/03 23:19:18;;;;;;;18.37;16.40;;;-1.00;97.90;;;;;;10289655;28;20335;-76
2023/12/03 23:24:20;;;;;;;18.67;16.63;;;-1.00;98.10;;;;;;10291073;28;20224;-78
2023/12/03 23:29:21;;;;;;;19.80;16.50;;;-1.10;98.20;;;;;;10292929;28;20227;-78
2023/12/03 23:34:25;;;;;;;17.70;15.50;;;-1.10;98.40;;;;;;10284422;28;20281;-78
2023/12/03 23:39:26;;;;;;;17.13;15.23;;;-1.10;98.50;;;;;;10286791;28;20251;-78
2023/12/03 23:44:28;;;;;;;17.63;15.77;;;-1.10;98.00;;;;;;10291056;28;20242;-78
2023/12/03 23:49:32;;;;;;;19.60;16.40;;;-1.10;98.40;;;;;;10290158;28;20654;-78
2023/12/03 23:54:33;;;;;;;17.93;15.70;;;-1.10;98.50;;;;;;10286854;28;20283;-76
2023/12/03 23:59:35;;;;;;;20.63;17.43;;;-1.20;98.30;;;;;;10248124;28;20541;-78
